Hayward, WI

8:31 AM CDT on July 30, 2014 (GMT -0500)
Sawyer County (KHYR) Elev 1214 ft | 46.02 °N, 91.45 °W | Change Station

Current weather conditions updated 38 minutes ago

Fog
Fog
53 °F
Feels Like 53 °F
N
0
Wind Variable Wind from North

Today is forecast to be nearly the same temperature as yesterday.

Today
High -- | Low -- °F
--% Chance of Precip.
Yesterday
High -- | Low -- °F
Precip. -- in
5:45 AM 8:37 PM
Waxing Crescent, 11% visible
Pressure 30.11 in
Visibility 0.2 miles
Clouds
Dew Point 53 °F
Humidity 100%
Rainfall 0.00 in
Snow Depth Not available.
UV Not available.
Pollen 6.00 out of 12
Air Quality Not available.
Flu Activity Not available.
METAR KHYR 301253Z AUTO 00000KT 1/4SM FG VV002 12/12 A3010 RMK AO2 SLP196 T01170117

More Conditions Fewer Conditions

Pressure 30.11 in
Visibility 0.2 miles
Clouds
Dew Point 53 °F
Humidity 100%
Rainfall 0.00 in
Snow Depth Not available.
UV Not available.
Pollen 6.00 out of 12
Air Quality Not available.
Flu Activity Not available.
METAR KHYR 301253Z AUTO 00000KT 1/4SM FG VV002 12/12 A3010 RMK AO2 SLP196 T01170117

More Conditions Fewer Conditions

10-Day Weather Forecast

Almanac

Astronomy

Jul. 30, 2014 Rise Set
Actual Time 5:45 AM CDT 8:37 PM CDT
Civil Twilight 5:10 AM CDT 9:12 PM CDT
Nautical Twilight 4:26 AM CDT 9:56 PM CDT
Astronomical Twilight 3:33 AM CDT 10:48 PM CDT
Moon 9:32 AM CDT 10:04 PM CDT
Length of Visible Light 16h 01m
Length of Day
14h 52m
Tomorrow will be 2m 28s shorter.
Waxing Crescent, 11% of the Moon is Illuminated
Today
Waxing Crescent
Aug 3
First Quarter
Aug 10
Full
Aug 17
Last Quarter
Aug 25
New

Today's Extremes

State Highs State Lows

Community

WunderPhotos

Upload Photos

1,739,079 photos uploaded!

Nearby

Snow Depth

Station Depth Elevation
No new snow has been reported.

Earthquake Activity

City Distance Mag. Time & Date
No recent earthquake activity has been reported nearby.
Minimum magnitude displayed is 2.5.

Coastal Water Temperatures

Place Temperature
No Stations Reporting

Nearby Weather Stations

Station Location Temp. Dew Point Humidity Wind Precip. Elev Updated Type
RAWS HAYWARD WI, North Woods Beach, WI 53 °F 53 °F 100% North  at  0 mph 0.00 in / hr 1173 ft 8:03 AM CDT MADIS
Three miles west of Seeley, Seeley, WI 55.2 °F 55 °F 98% ENE  at  0.0 mph 0.00 in / hr 1338 ft 8:20 AM CDT Normal
Cable, Cable, WI 51.7 °F 50 °F 95% SSW  at  1.0 mph 0.00 in / hr 1345 ft 8:20 AM CDT Normal
Dam Road, Winter, WI 54.2 °F 54 °F 98% East  at  1.2 mph 0.00 in / hr 1312 ft 8:31 AM CDT Rapid Fire
Namakagon Fire Dept, Cable, WI 52.9 °F 52 °F 98% SE  at  2.0 mph 0.00 in / hr 1424 ft 8:30 AM CDT Normal
Lake Five, Clamlake, WI 52.9 °F 52 °F 95% West  at  1.0 mph 0.00 in / hr 1500 ft 8:30 AM CDT Rapid Fire
Clam Lake, WI 53.1 °F 53 °F 99% NNW  at  2.3 mph 0.00 in / hr 1500 ft 8:31 AM CDT Rapid Fire
RAWS CLAM LAKE WI, Clam Lake, WI 53 °F 52 °F 97% SE  at  3 mph 0.00 in / hr 1500 ft 8:02 AM CDT MADIS

Show More Stations Show Fewer Stations